Terminal Aerodrome Forecast
Issued by NWS Wilmington, NC

Home | Current Version | Previous Version | Text Only | Print | Product List | Glossary On
Versions: 1 2 3 4 5 6 7 8 9 10 11 12 13 14 15 16 17 18 19
491
FTUS42 KILM 071134
TAFILM
TAF
KILM 071134Z 0712/0812 01015G22KT 5SM -RA BR SCT020 OVC060
     FM071400 01020G30KT 6SM RA BR SCT004 OVC007
      TEMPO 0714/0718 2SM +RA BR OVC004
     FM071900 35028G40KT 6SM -RA BR BKN007 OVC015
     FM080100 34020G30KT P6SM -RA BKN025 OVC050
     FM080700 31010KT P6SM SCT050=

USA.gov is the U.S. government's official web portal to all federal, state and local government web resources and services.